sensor_id;sensor_type;location;lat;lon;timestamp;temperature;humidity
63445;DHT22;49573;47.682;9.170;2023-01-28T00:02:20;1.10;75.70
63445;DHT22;49573;47.682;9.170;2023-01-28T00:05:07;1.00;75.90
63445;DHT22;49573;47.682;9.170;2023-01-28T00:07:53;1.00;76.40
63445;DHT22;49573;47.682;9.170;2023-01-28T00:10:40;1.00;76.50
63445;DHT22;49573;47.682;9.170;2023-01-28T00:13:28;0.90;76.50
63445;DHT22;49573;47.682;9.170;2023-01-28T00:16:14;1.00;76.10
63445;DHT22;49573;47.682;9.170;2023-01-28T00:19:00;1.00;75.90
63445;DHT22;49573;47.682;9.170;2023-01-28T00:21:46;1.00;76.00
63445;DHT22;49573;47.682;9.170;2023-01-28T00:24:32;1.00;76.30
63445;DHT22;49573;47.682;9.170;2023-01-28T00:27:20;1.00;76.50
63445;DHT22;49573;47.682;9.170;2023-01-28T00:30:07;1.00;76.50
63445;DHT22;49573;47.682;9.170;2023-01-28T00:32:53;0.90;76.50
63445;DHT22;49573;47.682;9.170;2023-01-28T00:35:41;1.00;76.40
63445;DHT22;49573;47.682;9.170;2023-01-28T00:38:27;0.90;76.40
63445;DHT22;49573;47.682;9.170;2023-01-28T00:41:15;1.00;76.40
63445;DHT22;49573;47.682;9.170;2023-01-28T00:44:03;1.00;76.50
63445;DHT22;49573;47.682;9.170;2023-01-28T00:46:49;1.00;76.50
63445;DHT22;49573;47.682;9.170;2023-01-28T00:49:35;1.00;76.60
63445;DHT22;49573;47.682;9.170;2023-01-28T00:52:21;1.00;76.80
63445;DHT22;49573;47.682;9.170;2023-01-28T00:55:08;1.00;76.60
63445;DHT22;49573;47.682;9.170;2023-01-28T00:57:54;1.00;76.80
63445;DHT22;49573;47.682;9.170;2023-01-28T01:00:41;1.00;76.40
63445;DHT22;49573;47.682;9.170;2023-01-28T01:03:27;1.00;76.20
63445;DHT22;49573;47.682;9.170;2023-01-28T01:06:14;1.00;76.30
63445;DHT22;49573;47.682;9.170;2023-01-28T01:09:01;1.00;76.50
63445;DHT22;49573;47.682;9.170;2023-01-28T01:11:47;1.10;76.40
63445;DHT22;49573;47.682;9.170;2023-01-28T01:14:33;1.00;76.30
63445;DHT22;49573;47.682;9.170;2023-01-28T01:17:21;1.00;76.20
63445;DHT22;49573;47.682;9.170;2023-01-28T01:20:11;1.00;75.90
63445;DHT22;49573;47.682;9.170;2023-01-28T01:22:57;1.00;75.90
63445;DHT22;49573;47.682;9.170;2023-01-28T01:25:43;1.00;76.00
63445;DHT22;49573;47.682;9.170;2023-01-28T01:28:30;1.00;76.30
63445;DHT22;49573;47.682;9.170;2023-01-28T01:31:18;0.90;76.20
63445;DHT22;49573;47.682;9.170;2023-01-28T01:34:05;1.00;76.40
63445;DHT22;49573;47.682;9.170;2023-01-28T01:36:51;1.00;76.40
63445;DHT22;49573;47.682;9.170;2023-01-28T01:39:37;1.00;76.40
63445;DHT22;49573;47.682;9.170;2023-01-28T01:42:24;1.00;76.00
63445;DHT22;49573;47.682;9.170;2023-01-28T01:45:12;1.00;76.30
63445;DHT22;49573;47.682;9.170;2023-01-28T01:48:01;1.00;76.70
63445;DHT22;49573;47.682;9.170;2023-01-28T01:50:53;1.00;76.80
63445;DHT22;49573;47.682;9.170;2023-01-28T01:53:45;1.00;76.60
63445;DHT22;49573;47.682;9.170;2023-01-28T01:56:35;1.00;76.50
63445;DHT22;49573;47.682;9.170;2023-01-28T01:59:26;1.00;76.40
63445;DHT22;49573;47.682;9.170;2023-01-28T02:02:13;1.00;76.50
63445;DHT22;49573;47.682;9.170;2023-01-28T02:05:16;1.00;76.40
63445;DHT22;49573;47.682;9.170;2023-01-28T02:08:05;1.00;76.60
63445;DHT22;49573;47.682;9.170;2023-01-28T02:11:07;0.90;76.50
63445;DHT22;49573;47.682;9.170;2023-01-28T02:13:57;1.00;76.40
63445;DHT22;49573;47.682;9.170;2023-01-28T02:16:46;1.00;76.30
63445;DHT22;49573;47.682;9.170;2023-01-28T02:19:36;1.00;76.40
63445;DHT22;49573;47.682;9.170;2023-01-28T02:22:51;0.90;76.50
63445;DHT22;49573;47.682;9.170;2023-01-28T02:29:26;0.90;76.50
63445;DHT22;49573;47.682;9.170;2023-01-28T02:32:17;1.00;76.60
63445;DHT22;49573;47.682;9.170;2023-01-28T02:35:11;0.90;76.70
63445;DHT22;49573;47.682;9.170;2023-01-28T02:38:02;0.90;76.70
63445;DHT22;49573;47.682;9.170;2023-01-28T02:40:54;1.00;76.70
63445;DHT22;49573;47.682;9.170;2023-01-28T02:43:47;1.00;76.50
63445;DHT22;49573;47.682;9.170;2023-01-28T02:46:36;0.90;76.50
63445;DHT22;49573;47.682;9.170;2023-01-28T02:49:42;1.00;76.50
63445;DHT22;49573;47.682;9.170;2023-01-28T02:52:36;1.00;76.40
63445;DHT22;49573;47.682;9.170;2023-01-28T02:55:52;1.00;76.60
63445;DHT22;49573;47.682;9.170;2023-01-28T02:58:43;1.00;76.70
63445;DHT22;49573;47.682;9.170;2023-01-28T03:01:37;0.90;76.70
63445;DHT22;49573;47.682;9.170;2023-01-28T03:04:30;0.90;76.50
63445;DHT22;49573;47.682;9.170;2023-01-28T03:07:19;0.90;76.70
63445;DHT22;49573;47.682;9.170;2023-01-28T03:10:08;0.90;77.00
63445;DHT22;49573;47.682;9.170;2023-01-28T03:12:58;0.90;76.70
63445;DHT22;49573;47.682;9.170;2023-01-28T03:16:03;0.90;76.60
63445;DHT22;49573;47.682;9.170;2023-01-28T03:19:10;1.00;76.80
63445;DHT22;49573;47.682;9.170;2023-01-28T03:22:16;1.00;76.60
63445;DHT22;49573;47.682;9.170;2023-01-28T03:25:22;1.00;76.70
63445;DHT22;49573;47.682;9.170;2023-01-28T03:28:32;1.00;76.60
63445;DHT22;49573;47.682;9.170;2023-01-28T03:31:37;1.00;76.70
63445;DHT22;49573;47.682;9.170;2023-01-28T03:34:44;0.90;76.70
63445;DHT22;49573;47.682;9.170;2023-01-28T03:37:49;0.90;76.80
63445;DHT22;49573;47.682;9.170;2023-01-28T03:40:35;1.00;76.90
63445;DHT22;49573;47.682;9.170;2023-01-28T03:43:22;0.90;76.90
63445;DHT22;49573;47.682;9.170;2023-01-28T03:46:08;1.00;77.00
63445;DHT22;49573;47.682;9.170;2023-01-28T03:48:54;1.00;77.00
63445;DHT22;49573;47.682;9.170;2023-01-28T03:51:42;1.00;77.00
63445;DHT22;49573;47.682;9.170;2023-01-28T03:54:29;1.00;76.90
63445;DHT22;49573;47.682;9.170;2023-01-28T03:57:15;1.00;77.00
63445;DHT22;49573;47.682;9.170;2023-01-28T04:00:02;0.90;77.30
63445;DHT22;49573;47.682;9.170;2023-01-28T04:02:49;1.00;77.20
63445;DHT22;49573;47.682;9.170;2023-01-28T04:05:35;0.90;77.10
63445;DHT22;49573;47.682;9.170;2023-01-28T04:08:23;0.90;77.20
63445;DHT22;49573;47.682;9.170;2023-01-28T04:11:09;0.90;77.10
63445;DHT22;49573;47.682;9.170;2023-01-28T04:14:01;0.90;77.10
63445;DHT22;49573;47.682;9.170;2023-01-28T04:16:47;1.00;77.10
63445;DHT22;49573;47.682;9.170;2023-01-28T04:19:34;1.00;76.90
63445;DHT22;49573;47.682;9.170;2023-01-28T04:22:22;1.00;76.80
63445;DHT22;49573;47.682;9.170;2023-01-28T04:25:09;1.00;76.80
63445;DHT22;49573;47.682;9.170;2023-01-28T04:27:55;0.90;77.00
63445;DHT22;49573;47.682;9.170;2023-01-28T04:30:42;0.90;77.30
63445;DHT22;49573;47.682;9.170;2023-01-28T04:33:28;0.90;77.20
63445;DHT22;49573;47.682;9.170;2023-01-28T04:36:14;0.90;77.10
63445;DHT22;49573;47.682;9.170;2023-01-28T04:39:00;0.90;77.10
63445;DHT22;49573;47.682;9.170;2023-01-28T04:41:48;0.90;77.30
63445;DHT22;49573;47.682;9.170;2023-01-28T04:44:34;0.80;77.20
63445;DHT22;49573;47.682;9.170;2023-01-28T04:47:20;0.80;77.30
63445;DHT22;49573;47.682;9.170;2023-01-28T04:50:07;0.90;77.30
63445;DHT22;49573;47.682;9.170;2023-01-28T04:52:53;0.90;77.10
63445;DHT22;49573;47.682;9.170;2023-01-28T04:55:39;0.80;77.40
63445;DHT22;49573;47.682;9.170;2023-01-28T04:58:27;0.90;77.40
63445;DHT22;49573;47.682;9.170;2023-01-28T05:01:13;0.80;77.30
63445;DHT22;49573;47.682;9.170;2023-01-28T05:03:59;0.90;77.50
63445;DHT22;49573;47.682;9.170;2023-01-28T05:06:50;0.80;77.30
63445;DHT22;49573;47.682;9.170;2023-01-28T05:09:36;0.90;77.50
63445;DHT22;49573;47.682;9.170;2023-01-28T05:12:22;0.80;77.20
63445;DHT22;49573;47.682;9.170;2023-01-28T05:15:10;0.90;77.40
63445;DHT22;49573;47.682;9.170;2023-01-28T05:17:56;0.80;77.30
63445;DHT22;49573;47.682;9.170;2023-01-28T05:20:42;0.80;77.30
63445;DHT22;49573;47.682;9.170;2023-01-28T05:23:28;0.90;77.40
63445;DHT22;49573;47.682;9.170;2023-01-28T05:26:14;0.90;77.10
63445;DHT22;49573;47.682;9.170;2023-01-28T05:29:00;0.80;77.40
63445;DHT22;49573;47.682;9.170;2023-01-28T05:31:48;0.90;77.20
63445;DHT22;49573;47.682;9.170;2023-01-28T05:34:34;0.90;76.80
63445;DHT22;49573;47.682;9.170;2023-01-28T05:37:20;0.90;77.20
63445;DHT22;49573;47.682;9.170;2023-01-28T05:40:07;0.90;77.30
63445;DHT22;49573;47.682;9.170;2023-01-28T05:42:53;0.90;77.40
63445;DHT22;49573;47.682;9.170;2023-01-28T05:45:40;0.90;77.50
63445;DHT22;49573;47.682;9.170;2023-01-28T05:48:27;0.90;77.40
63445;DHT22;49573;47.682;9.170;2023-01-28T05:51:13;0.90;77.50
63445;DHT22;49573;47.682;9.170;2023-01-28T05:53:59;0.90;77.50
63445;DHT22;49573;47.682;9.170;2023-01-28T05:56:45;0.90;77.40
63445;DHT22;49573;47.682;9.170;2023-01-28T05:59:32;0.90;77.40
63445;DHT22;49573;47.682;9.170;2023-01-28T06:02:18;1.00;77.50
63445;DHT22;49573;47.682;9.170;2023-01-28T06:05:06;0.90;77.70
63445;DHT22;49573;47.682;9.170;2023-01-28T06:07:52;0.90;77.80
63445;DHT22;49573;47.682;9.170;2023-01-28T06:10:39;0.90;77.80
63445;DHT22;49573;47.682;9.170;2023-01-28T06:13:25;1.00;77.60
63445;DHT22;49573;47.682;9.170;2023-01-28T06:16:11;0.90;77.60
63445;DHT22;49573;47.682;9.170;2023-01-28T06:18:57;1.00;77.80
63445;DHT22;49573;47.682;9.170;2023-01-28T06:21:44;1.00;77.60
63445;DHT22;49573;47.682;9.170;2023-01-28T06:24:30;1.00;77.40
63445;DHT22;49573;47.682;9.170;2023-01-28T06:27:16;1.00;77.50
63445;DHT22;49573;47.682;9.170;2023-01-28T06:30:03;1.00;77.40
63445;DHT22;49573;47.682;9.170;2023-01-28T06:32:53;1.00;77.20
63445;DHT22;49573;47.682;9.170;2023-01-28T06:35:39;1.00;77.30
63445;DHT22;49573;47.682;9.170;2023-01-28T06:38:27;1.00;77.30
63445;DHT22;49573;47.682;9.170;2023-01-28T06:41:13;1.00;77.40
63445;DHT22;49573;47.682;9.170;2023-01-28T06:43:59;1.00;77.10
63445;DHT22;49573;47.682;9.170;2023-01-28T06:46:45;1.00;76.90
63445;DHT22;49573;47.682;9.170;2023-01-28T06:49:31;1.00;76.70
63445;DHT22;49573;47.682;9.170;2023-01-28T06:52:17;1.00;76.50
63445;DHT22;49573;47.682;9.170;2023-01-28T06:55:05;0.90;76.10
63445;DHT22;49573;47.682;9.170;2023-01-28T06:57:51;1.00;76.30
63445;DHT22;49573;47.682;9.170;2023-01-28T07:00:37;1.00;76.30
63445;DHT22;49573;47.682;9.170;2023-01-28T07:03:23;0.90;76.10
63445;DHT22;49573;47.682;9.170;2023-01-28T07:06:09;1.00;76.10
63445;DHT22;49573;47.682;9.170;2023-01-28T07:08:55;1.00;76.00
63445;DHT22;49573;47.682;9.170;2023-01-28T07:11:43;1.00;76.00
63445;DHT22;49573;47.682;9.170;2023-01-28T07:14:29;1.00;76.00
63445;DHT22;49573;47.682;9.170;2023-01-28T07:17:15;0.90;76.10
63445;DHT22;49573;47.682;9.170;2023-01-28T07:20:01;1.00;76.40
63445;DHT22;49573;47.682;9.170;2023-01-28T07:22:47;1.00;76.10
63445;DHT22;49573;47.682;9.170;2023-01-28T07:25:33;1.00;76.10
63445;DHT22;49573;47.682;9.170;2023-01-28T07:28:21;1.00;75.90
63445;DHT22;49573;47.682;9.170;2023-01-28T07:31:07;1.00;75.70
63445;DHT22;49573;47.682;9.170;2023-01-28T07:33:53;1.00;75.70
63445;DHT22;49573;47.682;9.170;2023-01-28T07:36:39;1.00;75.70
63445;DHT22;49573;47.682;9.170;2023-01-28T07:39:26;1.00;75.80
63445;DHT22;49573;47.682;9.170;2023-01-28T07:42:12;1.00;75.50
63445;DHT22;49573;47.682;9.170;2023-01-28T07:44:59;1.10;76.10
63445;DHT22;49573;47.682;9.170;2023-01-28T07:47:53;1.10;75.50
63445;DHT22;49573;47.682;9.170;2023-01-28T07:50:39;1.10;75.50
63445;DHT22;49573;47.682;9.170;2023-01-28T07:53:25;1.20;75.50
63445;DHT22;49573;47.682;9.170;2023-01-28T07:56:11;1.10;75.70
63445;DHT22;49573;47.682;9.170;2023-01-28T07:58:58;1.20;75.60
63445;DHT22;49573;47.682;9.170;2023-01-28T08:01:45;1.20;75.30
63445;DHT22;49573;47.682;9.170;2023-01-28T08:04:31;1.20;74.90
63445;DHT22;49573;47.682;9.170;2023-01-28T08:07:17;1.20;74.70
63445;DHT22;49573;47.682;9.170;2023-01-28T08:10:04;1.30;74.80
63445;DHT22;49573;47.682;9.170;2023-01-28T08:12:51;1.30;74.40
63445;DHT22;49573;47.682;9.170;2023-01-28T08:15:38;1.30;74.40
63445;DHT22;49573;47.682;9.170;2023-01-28T08:18:25;1.40;74.40
63445;DHT22;49573;47.682;9.170;2023-01-28T08:21:11;1.40;74.30
63445;DHT22;49573;47.682;9.170;2023-01-28T08:23:57;1.40;74.10
63445;DHT22;49573;47.682;9.170;2023-01-28T08:26:43;1.30;73.50
63445;DHT22;49573;47.682;9.170;2023-01-28T08:29:32;1.30;73.40
63445;DHT22;49573;47.682;9.170;2023-01-28T08:32:18;1.30;73.30
63445;DHT22;49573;47.682;9.170;2023-01-28T08:35:06;1.40;73.20
63445;DHT22;49573;47.682;9.170;2023-01-28T08:37:53;1.40;72.80
63445;DHT22;49573;47.682;9.170;2023-01-28T08:40:39;1.40;73.20
63445;DHT22;49573;47.682;9.170;2023-01-28T08:43:25;1.50;72.80
63445;DHT22;49573;47.682;9.170;2023-01-28T08:46:11;1.50;72.50
63445;DHT22;49573;47.682;9.170;2023-01-28T08:48:57;1.50;72.70
63445;DHT22;49573;47.682;9.170;2023-01-28T08:51:45;1.50;72.60
63445;DHT22;49573;47.682;9.170;2023-01-28T08:54:32;1.50;72.90
63445;DHT22;49573;47.682;9.170;2023-01-28T08:57:18;1.50;72.80
63445;DHT22;49573;47.682;9.170;2023-01-28T09:00:05;1.70;72.80
63445;DHT22;49573;47.682;9.170;2023-01-28T09:02:52;1.70;72.30
63445;DHT22;49573;47.682;9.170;2023-01-28T09:05:38;1.70;71.70
63445;DHT22;49573;47.682;9.170;2023-01-28T09:08:26;1.70;71.60
63445;DHT22;49573;47.682;9.170;2023-01-28T09:11:12;1.70;71.80
63445;DHT22;49573;47.682;9.170;2023-01-28T09:13:58;1.70;71.50
63445;DHT22;49573;47.682;9.170;2023-01-28T09:16:44;1.80;71.70
63445;DHT22;49573;47.682;9.170;2023-01-28T09:19:30;1.80;71.00
63445;DHT22;49573;47.682;9.170;2023-01-28T09:22:16;1.80;71.20
63445;DHT22;49573;47.682;9.170;2023-01-28T09:25:04;1.80;71.00
63445;DHT22;49573;47.682;9.170;2023-01-28T09:27:51;1.90;71.50
63445;DHT22;49573;47.682;9.170;2023-01-28T09:30:37;1.80;70.30
63445;DHT22;49573;47.682;9.170;2023-01-28T09:33:24;1.90;69.60
63445;DHT22;49573;47.682;9.170;2023-01-28T09:36:10;2.30;69.70
63445;DHT22;49573;47.682;9.170;2023-01-28T09:38:56;2.40;68.40
63445;DHT22;49573;47.682;9.170;2023-01-28T09:41:49;2.50;68.50
63445;DHT22;49573;47.682;9.170;2023-01-28T09:44:47;2.70;68.10
63445;DHT22;49573;47.682;9.170;2023-01-28T09:47:41;2.90;67.10
63445;DHT22;49573;47.682;9.170;2023-01-28T09:50:32;3.30;66.80
63445;DHT22;49573;47.682;9.170;2023-01-28T09:53:21;3.40;66.20
63445;DHT22;49573;47.682;9.170;2023-01-28T09:56:11;3.50;66.30
63445;DHT22;49573;47.682;9.170;2023-01-28T09:59:09;3.60;64.90
63445;DHT22;49573;47.682;9.170;2023-01-28T10:02:03;3.60;65.20
63445;DHT22;49573;47.682;9.170;2023-01-28T10:05:00;3.60;64.70
63445;DHT22;49573;47.682;9.170;2023-01-28T10:07:56;3.60;63.90
63445;DHT22;49573;47.682;9.170;2023-01-28T10:10:49;4.00;64.10
63445;DHT22;49573;47.682;9.170;2023-01-28T10:13:42;4.20;64.20
63445;DHT22;49573;47.682;9.170;2023-01-28T10:16:36;4.10;63.00
63445;DHT22;49573;47.682;9.170;2023-01-28T10:19:25;4.10;62.90
63445;DHT22;49573;47.682;9.170;2023-01-28T10:22:17;4.20;63.60
63445;DHT22;49573;47.682;9.170;2023-01-28T10:25:06;4.60;62.40
63445;DHT22;49573;47.682;9.170;2023-01-28T10:28:00;4.90;62.30
63445;DHT22;49573;47.682;9.170;2023-01-28T10:30:47;5.10;62.20
63445;DHT22;49573;47.682;9.170;2023-01-28T10:33:37;4.90;61.80
63445;DHT22;49573;47.682;9.170;2023-01-28T10:36:24;4.70;62.30
63445;DHT22;49573;47.682;9.170;2023-01-28T10:39:13;4.50;62.60
63445;DHT22;49573;47.682;9.170;2023-01-28T10:41:59;4.30;61.80
63445;DHT22;49573;47.682;9.170;2023-01-28T10:44:46;4.10;62.30
63445;DHT22;49573;47.682;9.170;2023-01-28T10:47:37;3.80;62.50
63445;DHT22;49573;47.682;9.170;2023-01-28T10:50:27;3.70;63.20
63445;DHT22;49573;47.682;9.170;2023-01-28T10:53:14;3.70;63.10
63445;DHT22;49573;47.682;9.170;2023-01-28T10:56:00;3.70;63.30
63445;DHT22;49573;47.682;9.170;2023-01-28T10:58:49;3.70;63.30
63445;DHT22;49573;47.682;9.170;2023-01-28T11:01:40;3.60;63.10
63445;DHT22;49573;47.682;9.170;2023-01-28T11:04:28;3.50;64.10
63445;DHT22;49573;47.682;9.170;2023-01-28T11:07:18;3.50;64.60
63445;DHT22;49573;47.682;9.170;2023-01-28T11:10:27;3.40;65.00
63445;DHT22;49573;47.682;9.170;2023-01-28T11:13:17;3.30;65.50
63445;DHT22;49573;47.682;9.170;2023-01-28T11:16:11;3.30;65.80
63445;DHT22;49573;47.682;9.170;2023-01-28T11:19:02;3.20;66.00
63445;DHT22;49573;47.682;9.170;2023-01-28T11:21:53;3.10;66.50
63445;DHT22;49573;47.682;9.170;2023-01-28T11:24:41;3.10;66.70
63445;DHT22;49573;47.682;9.170;2023-01-28T11:27:30;3.00;67.00
63445;DHT22;49573;47.682;9.170;2023-01-28T11:30:21;3.00;67.40
63445;DHT22;49573;47.682;9.170;2023-01-28T11:33:15;3.00;67.70
63445;DHT22;49573;47.682;9.170;2023-01-28T11:36:11;3.00;68.20
63445;DHT22;49573;47.682;9.170;2023-01-28T11:39:01;2.90;67.20
63445;DHT22;49573;47.682;9.170;2023-01-28T11:41:52;3.00;68.50
63445;DHT22;49573;47.682;9.170;2023-01-28T11:44:39;3.00;68.40
63445;DHT22;49573;47.682;9.170;2023-01-28T11:51:00;3.00;68.50
63445;DHT22;49573;47.682;9.170;2023-01-28T11:54:03;3.10;68.00
63445;DHT22;49573;47.682;9.170;2023-01-28T11:57:03;3.00;68.10
63445;DHT22;49573;47.682;9.170;2023-01-28T12:00:03;3.00;68.30
63445;DHT22;49573;47.682;9.170;2023-01-28T12:03:04;3.00;68.10
63445;DHT22;49573;47.682;9.170;2023-01-28T12:06:00;2.80;68.30
63445;DHT22;49573;47.682;9.170;2023-01-28T12:08:56;2.90;68.90
63445;DHT22;49573;47.682;9.170;2023-01-28T12:11:52;2.80;68.20
63445;DHT22;49573;47.682;9.170;2023-01-28T12:15:16;2.80;68.60
63445;DHT22;49573;47.682;9.170;2023-01-28T12:18:17;2.80;68.90
63445;DHT22;49573;47.682;9.170;2023-01-28T12:21:05;2.80;68.50
63445;DHT22;49573;47.682;9.170;2023-01-28T12:24:05;2.80;69.50
63445;DHT22;49573;47.682;9.170;2023-01-28T12:27:02;2.80;68.90
63445;DHT22;49573;47.682;9.170;2023-01-28T12:29:57;2.80;69.10
63445;DHT22;49573;47.682;9.170;2023-01-28T12:32:59;2.80;69.00
63445;DHT22;49573;47.682;9.170;2023-01-28T12:35:56;2.80;69.30
63445;DHT22;49573;47.682;9.170;2023-01-28T12:38:55;2.80;69.40
63445;DHT22;49573;47.682;9.170;2023-01-28T12:41:47;2.70;69.10
63445;DHT22;49573;47.682;9.170;2023-01-28T12:44:38;2.80;69.60
63445;DHT22;49573;47.682;9.170;2023-01-28T12:47:28;2.80;69.60
63445;DHT22;49573;47.682;9.170;2023-01-28T12:50:21;2.80;69.50
63445;DHT22;49573;47.682;9.170;2023-01-28T12:53:18;2.80;69.50
63445;DHT22;49573;47.682;9.170;2023-01-28T12:56:08;2.80;69.30
63445;DHT22;49573;47.682;9.170;2023-01-28T12:59:03;2.80;68.90
63445;DHT22;49573;47.682;9.170;2023-01-28T13:02:00;2.80;69.20
63445;DHT22;49573;47.682;9.170;2023-01-28T13:04:53;2.80;69.40
63445;DHT22;49573;47.682;9.170;2023-01-28T13:07:44;2.80;68.90
63445;DHT22;49573;47.682;9.170;2023-01-28T13:10:37;2.80;69.40
63445;DHT22;49573;47.682;9.170;2023-01-28T13:13:28;2.90;69.30
63445;DHT22;49573;47.682;9.170;2023-01-28T13:16:15;2.90;69.00
63445;DHT22;49573;47.682;9.170;2023-01-28T13:19:06;3.00;69.10
63445;DHT22;49573;47.682;9.170;2023-01-28T13:21:52;3.00;69.10
63445;DHT22;49573;47.682;9.170;2023-01-28T13:24:40;3.00;68.50
63445;DHT22;49573;47.682;9.170;2023-01-28T13:27:27;3.00;68.40
63445;DHT22;49573;47.682;9.170;2023-01-28T13:30:23;3.00;68.40
63445;DHT22;49573;47.682;9.170;2023-01-28T13:33:28;3.00;68.10
63445;DHT22;49573;47.682;9.170;2023-01-28T13:36:24;2.90;68.30
63445;DHT22;49573;47.682;9.170;2023-01-28T13:39:18;2.90;68.70
63445;DHT22;49573;47.682;9.170;2023-01-28T13:42:23;2.80;68.60
63445;DHT22;49573;47.682;9.170;2023-01-28T13:45:21;2.90;68.70
63445;DHT22;49573;47.682;9.170;2023-01-28T13:48:20;2.80;68.60
63445;DHT22;49573;47.682;9.170;2023-01-28T13:51:18;2.80;68.70
63445;DHT22;49573;47.682;9.170;2023-01-28T13:54:06;2.80;69.20
63445;DHT22;49573;47.682;9.170;2023-01-28T13:57:07;2.80;69.10
63445;DHT22;49573;47.682;9.170;2023-01-28T14:00:06;2.80;69.00
63445;DHT22;49573;47.682;9.170;2023-01-28T14:09:57;2.70;67.60
63445;DHT22;49573;47.682;9.170;2023-01-28T14:16:18;2.70;68.20
63445;DHT22;49573;47.682;9.170;2023-01-28T14:19:11;2.70;68.10
63445;DHT22;49573;47.682;9.170;2023-01-28T14:22:04;2.70;68.20
63445;DHT22;49573;47.682;9.170;2023-01-28T14:24:50;2.70;68.10
63445;DHT22;49573;47.682;9.170;2023-01-28T14:27:39;2.70;68.30
63445;DHT22;49573;47.682;9.170;2023-01-28T14:30:33;2.70;68.40
63445;DHT22;49573;47.682;9.170;2023-01-28T14:33:23;2.70;68.60
63445;DHT22;49573;47.682;9.170;2023-01-28T14:36:10;2.60;68.70
63445;DHT22;49573;47.682;9.170;2023-01-28T14:38:57;2.60;68.90
63445;DHT22;49573;47.682;9.170;2023-01-28T14:41:45;2.60;69.00
63445;DHT22;49573;47.682;9.170;2023-01-28T14:44:35;2.60;69.10
63445;DHT22;49573;47.682;9.170;2023-01-28T14:47:33;2.50;69.30
63445;DHT22;49573;47.682;9.170;2023-01-28T14:50:29;2.50;69.30
63445;DHT22;49573;47.682;9.170;2023-01-28T14:56:38;2.50;68.80
63445;DHT22;49573;47.682;9.170;2023-01-28T14:59:32;2.50;69.20
63445;DHT22;49573;47.682;9.170;2023-01-28T15:02:22;2.50;69.30
63445;DHT22;49573;47.682;9.170;2023-01-28T15:05:10;2.50;69.20
63445;DHT22;49573;47.682;9.170;2023-01-28T15:08:00;2.40;68.80
63445;DHT22;49573;47.682;9.170;2023-01-28T15:10:46;2.40;69.20
63445;DHT22;49573;47.682;9.170;2023-01-28T15:13:37;2.40;69.00
63445;DHT22;49573;47.682;9.170;2023-01-28T15:16:26;2.40;69.10
63445;DHT22;49573;47.682;9.170;2023-01-28T15:19:24;2.40;69.20
63445;DHT22;49573;47.682;9.170;2023-01-28T15:22:14;2.40;69.30
63445;DHT22;49573;47.682;9.170;2023-01-28T15:25:02;2.40;69.10
63445;DHT22;49573;47.682;9.170;2023-01-28T15:27:50;2.40;69.20
63445;DHT22;49573;47.682;9.170;2023-01-28T15:30:44;2.40;69.30
63445;DHT22;49573;47.682;9.170;2023-01-28T15:33:30;2.30;69.50
63445;DHT22;49573;47.682;9.170;2023-01-28T15:36:21;2.40;69.30
63445;DHT22;49573;47.682;9.170;2023-01-28T15:39:13;2.40;69.40
63445;DHT22;49573;47.682;9.170;2023-01-28T15:42:03;2.30;69.40
63445;DHT22;49573;47.682;9.170;2023-01-28T15:44:50;2.30;69.50
63445;DHT22;49573;47.682;9.170;2023-01-28T15:47:37;2.30;69.30
63445;DHT22;49573;47.682;9.170;2023-01-28T15:50:24;2.30;69.40
63445;DHT22;49573;47.682;9.170;2023-01-28T15:53:11;2.30;69.70
63445;DHT22;49573;47.682;9.170;2023-01-28T15:56:06;2.30;69.40
63445;DHT22;49573;47.682;9.170;2023-01-28T15:58:55;2.20;69.40
63445;DHT22;49573;47.682;9.170;2023-01-28T16:01:41;2.30;69.40
63445;DHT22;49573;47.682;9.170;2023-01-28T16:04:29;2.30;69.30
63445;DHT22;49573;47.682;9.170;2023-01-28T16:07:15;2.20;69.20
63445;DHT22;49573;47.682;9.170;2023-01-28T16:10:02;2.30;69.40
63445;DHT22;49573;47.682;9.170;2023-01-28T16:12:49;2.20;69.30
63445;DHT22;49573;47.682;9.170;2023-01-28T16:15:44;2.20;69.50
63445;DHT22;49573;47.682;9.170;2023-01-28T16:18:38;2.20;69.60
63445;DHT22;49573;47.682;9.170;2023-01-28T16:21:26;2.20;69.60
63445;DHT22;49573;47.682;9.170;2023-01-28T16:24:22;2.20;69.20
63445;DHT22;49573;47.682;9.170;2023-01-28T16:27:20;2.20;68.90
63445;DHT22;49573;47.682;9.170;2023-01-28T16:30:08;2.20;69.10
63445;DHT22;49573;47.682;9.170;2023-01-28T16:32:55;2.20;69.10
63445;DHT22;49573;47.682;9.170;2023-01-28T16:35:41;2.20;68.90
63445;DHT22;49573;47.682;9.170;2023-01-28T16:38:28;2.20;68.90
63445;DHT22;49573;47.682;9.170;2023-01-28T16:41:18;2.20;68.80
63445;DHT22;49573;47.682;9.170;2023-01-28T16:44:07;2.20;69.20
63445;DHT22;49573;47.682;9.170;2023-01-28T16:46:53;2.20;69.30
63445;DHT22;49573;47.682;9.170;2023-01-28T16:49:41;2.20;69.40
63445;DHT22;49573;47.682;9.170;2023-01-28T16:52:27;2.10;69.40
63445;DHT22;49573;47.682;9.170;2023-01-28T16:55:15;2.20;69.60
63445;DHT22;49573;47.682;9.170;2023-01-28T16:58:02;2.20;69.40
63445;DHT22;49573;47.682;9.170;2023-01-28T17:00:48;2.10;69.40
63445;DHT22;49573;47.682;9.170;2023-01-28T17:03:34;2.10;69.30
63445;DHT22;49573;47.682;9.170;2023-01-28T17:06:21;2.10;69.30
63445;DHT22;49573;47.682;9.170;2023-01-28T17:09:08;2.10;69.50
63445;DHT22;49573;47.682;9.170;2023-01-28T17:11:54;2.10;69.70
63445;DHT22;49573;47.682;9.170;2023-01-28T17:14:40;2.10;69.70
63445;DHT22;49573;47.682;9.170;2023-01-28T17:17:26;2.10;69.50
63445;DHT22;49573;47.682;9.170;2023-01-28T17:20:13;2.10;69.80
63445;DHT22;49573;47.682;9.170;2023-01-28T17:23:00;2.10;69.40
63445;DHT22;49573;47.682;9.170;2023-01-28T17:25:47;2.10;69.60
63445;DHT22;49573;47.682;9.170;2023-01-28T17:28:33;2.10;69.90
63445;DHT22;49573;47.682;9.170;2023-01-28T17:31:20;2.00;69.90
63445;DHT22;49573;47.682;9.170;2023-01-28T17:34:06;2.00;70.10
63445;DHT22;49573;47.682;9.170;2023-01-28T17:36:52;2.00;70.00
63445;DHT22;49573;47.682;9.170;2023-01-28T17:39:40;2.00;70.30
63445;DHT22;49573;47.682;9.170;2023-01-28T17:42:26;2.10;70.30
63445;DHT22;49573;47.682;9.170;2023-01-28T17:45:12;2.10;70.30
63445;DHT22;49573;47.682;9.170;2023-01-28T17:47:58;2.10;70.60
63445;DHT22;49573;47.682;9.170;2023-01-28T17:50:44;2.00;70.60
63445;DHT22;49573;47.682;9.170;2023-01-28T17:53:30;2.00;70.70
63445;DHT22;49573;47.682;9.170;2023-01-28T17:56:19;2.00;70.70
63445;DHT22;49573;47.682;9.170;2023-01-28T17:59:05;2.00;70.90
63445;DHT22;49573;47.682;9.170;2023-01-28T18:01:51;2.10;71.20
63445;DHT22;49573;47.682;9.170;2023-01-28T18:04:40;2.10;71.10
63445;DHT22;49573;47.682;9.170;2023-01-28T18:07:26;2.10;71.10
63445;DHT22;49573;47.682;9.170;2023-01-28T18:10:13;2.10;71.20
63445;DHT22;49573;47.682;9.170;2023-01-28T18:13:01;2.00;71.40
63445;DHT22;49573;47.682;9.170;2023-01-28T18:15:47;2.00;71.50
63445;DHT22;49573;47.682;9.170;2023-01-28T18:18:33;2.00;71.70
63445;DHT22;49573;47.682;9.170;2023-01-28T18:21:22;2.10;71.70
63445;DHT22;49573;47.682;9.170;2023-01-28T18:24:14;2.00;71.90
63445;DHT22;49573;47.682;9.170;2023-01-28T18:27:00;2.00;71.60
63445;DHT22;49573;47.682;9.170;2023-01-28T18:29:49;2.00;71.80